Time;durP1;ratioP1;P1;durP2;ratioP2;P2;SDS_P1;SDS_P2;PMS_P1;PMS_P2;Temp;Humidity;BMP_temperature;BMP_pressure;BME280_temperature;BME280_humidity;BME280_pressure;Samples;Min_cycle;Max_cycle;Signal;HPM_P1;HPM_P2
2023/05/10 00:01:28;;;;;;;;;7.50;7.00;;;;;14.23;92.43;100722.56;5034648;28;45351;-74
2023/05/10 00:03:53;;;;;;;;;7.00;7.00;;;;;14.24;92.82;100725.16;5034217;28;47601;-75
2023/05/10 00:06:19;;;;;;;;;6.75;6.75;;;;;14.27;93.02;100730.34;5034264;28;45312;-74
2023/05/10 00:08:45;;;;;;;;;7.00;7.00;;;;;14.23;93.14;100720.81;5034536;28;45164;-72
2023/05/10 00:11:10;;;;;;;;;11.00;10.50;;;;;14.25;92.66;100721.59;5034783;28;45308;-73
2023/05/10 00:13:36;;;;;;;;;6.75;6.75;;;;;14.02;93.13;100692.50;5033937;28;46076;-73
2023/05/10 00:16:01;;;;;;;;;8.00;6.00;;;;;14.22;93.37;100727.00;5034363;28;45403;-74
2023/05/10 00:18:26;;;;;;;;;8.50;7.75;;;;;14.22;92.64;100726.16;5034289;28;45351;-73
2023/05/10 00:20:52;;;;;;;;;10.75;8.75;;;;;14.16;92.61;100714.00;5034699;28;45549;-73
2023/05/10 00:23:17;;;;;;;;;12.50;7.75;;;;;14.12;92.84;100709.75;5033986;28;46017;-74
2023/05/10 00:25:42;;;;;;;;;7.25;6.50;;;;;13.98;92.71;100681.13;5031188;28;45590;-75
2023/05/10 00:28:08;;;;;;;;;9.00;8.75;;;;;14.16;92.27;100714.00;5034525;28;45425;-72
2023/05/10 00:30:33;;;;;;;;;10.25;8.50;;;;;14.11;93.33;100710.66;5034332;28;45390;-74
2023/05/10 00:32:58;;;;;;;;;9.00;7.50;;;;;14.15;93.02;100714.06;5033987;28;45591;-74
2023/05/10 00:35:24;;;;;;;;;9.00;7.50;;;;;14.06;92.81;100702.91;5033889;28;45495;-73
2023/05/10 00:37:49;;;;;;;;;8.75;8.75;;;;;14.11;93.52;100708.00;5033879;28;45402;-73
2023/05/10 00:40:15;;;;;;;;;7.00;7.00;;;;;14.04;92.82;100706.53;5034257;28;45378;-75
2023/05/10 00:42:40;;;;;;;;;7.75;6.75;;;;;14.11;93.64;100715.97;5033573;28;45614;-73
2023/05/10 00:45:07;;;;;;;;;7.25;7.25;;;;;14.06;93.56;100715.28;5034016;28;45548;-73
2023/05/10 00:47:32;;;;;;;;;6.25;5.00;;;;;14.07;93.56;100720.53;5034214;28;45469;-73
2023/05/10 00:50:00;;;;;;;;;10.50;8.25;;;;;14.09;93.30;100728.41;5034278;28;45493;-74
2023/05/10 00:52:26;;;;;;;;;6.50;6.50;;;;;14.05;93.00;100714.41;5034123;28;45708;-73
2023/05/10 00:54:53;;;;;;;;;7.50;5.25;;;;;14.12;93.88;100727.44;5033538;28;45550;-72
2023/05/10 00:57:18;;;;;;;;;8.00;5.25;;;;;14.09;93.25;100718.66;5034116;28;45325;-74
2023/05/10 00:59:44;;;;;;;;;11.75;7.50;;;;;14.14;93.86;100731.72;5034245;28;45508;-72
2023/05/10 01:02:09;;;;;;;;;5.75;5.75;;;;;14.11;92.72;100721.25;5034384;28;46433;-74
2023/05/10 01:04:35;;;;;;;;;7.25;5.25;;;;;14.13;93.37;100729.13;5033323;28;45393;-74
2023/05/10 01:07:01;;;;;;;;;7.50;6.25;;;;;14.13;92.30;100732.66;5034675;28;45372;-74
2023/05/10 01:09:26;;;;;;;;;6.50;6.00;;;;;14.10;93.10;100723.03;5033335;28;45519;-73
2023/05/10 01:11:53;;;;;;;;;6.00;6.00;;;;;14.09;93.19;100723.97;5034521;28;45664;-73
2023/05/10 01:14:20;;;;;;;;;5.00;5.00;;;;;14.13;92.27;100732.66;5034271;28;45410;-74
2023/05/10 01:16:48;;;;;;;;;4.00;4.00;;;;;14.03;92.66;100712.72;5034430;28;45433;-74
2023/05/10 01:19:22;;;;;;;;;7.25;6.00;;;;;14.10;92.47;100725.69;5034651;28;45347;-73
2023/05/10 01:22:25;;;;;;;;;7.00;5.75;;;;;14.10;92.30;100731.00;5034466;28;46778;-73
2023/05/10 01:25:09;;;;;;;;;11.00;8.00;;;;;14.07;92.25;100732.88;5034326;28;45400;-74
2023/05/10 01:27:47;;;;;;;;;8.00;6.75;;;;;14.03;92.88;100740.09;5034380;28;45349;-72
2023/05/10 01:30:50;;;;;;;;;8.00;6.75;;;;;14.02;91.53;100726.91;5034354;28;45471;-74
2023/05/10 01:33:19;;;;;;;;;6.50;6.50;;;;;13.97;91.26;100727.09;5014187;28;46389;-74
2023/05/10 01:36:13;;;;;;;;;4.75;4.75;;;;;13.88;91.55;100714.16;5014059;28;45358;-73
2023/05/10 01:38:50;;;;;;;;;5.75;3.00;;;;;13.90;91.59;100738.81;5014120;28;45388;-74
2023/05/10 01:41:25;;;;;;;;;5.00;5.00;;;;;13.89;91.97;100735.28;5020658;28;45470;-74
2023/05/10 01:43:56;;;;;;;;;4.50;4.00;;;;;13.91;91.68;100736.13;5035215;27;45474;-75
2023/05/10 01:46:32;;;;;;;;;4.00;3.75;;;;;13.91;90.84;100735.22;5033916;28;45292;-74
2023/05/10 01:49:02;;;;;;;;;6.75;3.50;;;;;13.79;91.16;100727.75;5034096;28;45409;-74
2023/05/10 01:51:36;;;;;;;;;6.75;4.50;;;;;13.86;90.64;100747.78;5034311;28;45420;-74
2023/05/10 01:54:03;;;;;;;;;6.50;5.00;;;;;13.76;90.80;100742.81;5033638;28;46377;-73
2023/05/10 01:56:33;;;;;;;;;4.50;4.50;;;;;13.80;91.07;100758.59;5033768;28;45358;-72
2023/05/10 01:59:01;;;;;;;;;1.50;1.00;;;;;13.82;90.64;100767.34;5033785;27;45438;-73
2023/05/10 02:01:27;;;;;;;;;5.00;3.00;;;;;13.78;90.60;100760.41;5033992;27;45381;-73
2023/05/10 02:03:55;;;;;;;;;5.75;4.25;;;;;13.67;89.87;100752.88;5033456;28;46829;-75
2023/05/10 02:06:23;;;;;;;;;4.50;3.25;;;;;13.72;89.68;100769.44;5033634;28;45467;-73
2023/05/10 02:08:51;;;;;;;;;6.00;3.00;;;;;13.70;89.98;100769.50;5033811;28;45340;-75
2023/05/10 02:11:18;;;;;;;;;3.25;3.00;;;;;13.70;90.47;100769.50;5033788;28;45433;-74
2023/05/10 02:13:44;;;;;;;;;6.25;3.00;;;;;13.67;90.24;100771.41;5033557;28;46804;-74
2023/05/10 02:16:12;;;;;;;;;4.00;1.75;;;;;13.67;90.21;100769.59;5033562;28;45490;-74
2023/05/10 02:18:40;;;;;;;;;6.00;4.00;;;;;13.48;90.32;100745.59;5032404;28;45435;-74
2023/05/10 02:21:07;;;;;;;;;3.00;3.00;;;;;13.56;89.79;100759.41;5035953;28;45446;-75
2023/05/10 02:23:34;;;;;;;;;4.25;3.00;;;;;13.51;90.49;100761.34;5036296;28;46319;-73
2023/05/10 02:26:02;;;;;;;;;9.75;6.50;;;;;13.55;90.11;100773.56;5036343;28;45502;-73
2023/05/10 02:28:28;;;;;;;;;9.75;4.75;;;;;13.53;90.01;100780.66;5035658;28;45393;-74
2023/05/10 02:30:54;;;;;;;;;9.50;5.00;;;;;13.50;90.76;100778.13;5036462;28;45395;-73
2023/05/10 02:33:20;;;;;;;;;6.50;3.00;;;;;13.46;90.48;100771.22;5036507;28;45491;-72
2023/05/10 02:35:47;;;;;;;;;2.00;2.00;;;;;13.46;91.00;100776.50;5036368;28;45384;-73
2023/05/10 02:38:14;;;;;;;;;5.50;3.50;;;;;13.54;90.97;100787.69;5036508;28;45678;-73
2023/05/10 02:40:43;;;;;;;;;4.00;2.50;;;;;13.55;90.78;100784.13;5036593;28;45267;-73
2023/05/10 02:43:13;;;;;;;;;2.25;2.25;;;;;13.54;89.53;100792.13;5036280;28;46614;-73
2023/05/10 02:45:39;;;;;;;;;4.75;3.25;;;;;13.46;90.63;100781.78;5035968;27;45469;-75
2023/05/10 02:48:05;;;;;;;;;3.25;2.00;;;;;13.51;90.34;100806.31;5036395;27;45233;-73
2023/05/10 02:50:33;;;;;;;;;3.00;3.00;;;;;13.45;89.66;100785.38;5036651;28;45495;-75
2023/05/10 02:53:16;;;;;;;;;5.50;4.00;;;;;13.54;90.39;100805.34;5035202;28;46497;-73
2023/05/10 02:55:49;;;;;;;;;4.25;3.00;;;;;13.52;89.65;100797.47;5036049;27;45271;-73
2023/05/10 02:58:14;;;;;;;;;6.75;3.75;;;;;13.52;89.91;100802.75;5036113;28;45486;-73
2023/05/10 03:00:39;;;;;;;;;4.00;2.50;;;;;13.52;89.77;100801.88;5036374;28;45443;-74
2023/05/10 03:03:05;;;;;;;;;7.25;3.00;;;;;13.54;89.98;100803.56;5035967;28;45433;-74
2023/05/10 03:05:30;;;;;;;;;3.50;2.00;;;;;13.52;89.21;100797.47;5036011;28;45360;-74
2023/05/10 03:07:56;;;;;;;;;3.00;3.00;;;;;13.50;90.05;100806.38;5036236;28;45306;-73
2023/05/10 03:10:28;;;;;;;;;8.50;4.00;;;;;13.48;90.79;100800.28;5036098;28;45487;-72
2023/05/10 03:13:27;;;;;;;;;1.00;1.00;;;;;13.52;89.60;100801.88;5035889;28;46483;-75
2023/05/10 03:16:10;;;;;;;;;5.50;3.00;;;;;13.49;90.19;100808.16;5035717;28;45737;-75
2023/05/10 03:18:50;;;;;;;;;24.00;19.67;;;;;13.46;90.03;100802.09;5035558;28;45416;-75
2023/05/10 03:21:18;;;;;;;;;8.25;3.00;;;;;13.47;89.50;100809.97;5036151;28;45572;-74
2023/05/10 03:23:53;;;;;;;;;5.25;2.50;;;;;13.45;90.33;100797.72;5035792;28;46817;-74
2023/05/10 03:26:25;;;;;;;;;6.00;4.25;;;;;13.17;90.95;100769.53;5035528;28;45339;-74
2023/05/10 03:28:52;;;;;;;;;6.00;3.00;;;;;13.39;90.77;100806.75;5034516;28;45838;-75
2023/05/10 03:31:18;;;;;;;;;7.00;6.25;;;;;13.30;90.21;100792.03;5035466;28;45430;-73
2023/05/10 03:33:48;;;;;;;;;5.75;3.50;;;;;13.35;89.74;100808.63;5035442;28;46526;-74
2023/05/10 03:36:13;;;;;;;;;5.00;2.75;;;;;13.32;89.66;100797.25;5035627;28;45611;-74
2023/05/10 03:38:39;;;;;;;;;3.00;3.00;;;;;13.20;90.31;100799.38;5035699;28;45441;-73
2023/05/10 03:41:04;;;;;;;;;6.00;3.75;;;;;13.28;90.24;100804.41;5035833;28;45793;-74
2023/05/10 03:43:29;;;;;;;;;4.00;3.50;;;;;13.22;90.05;100800.19;5035574;28;45686;-75
2023/05/10 03:45:55;;;;;;;;;3.00;2.75;;;;;13.20;90.45;100807.31;5045331;27;45617;-74
2023/05/10 03:48:20;;;;;;;;;17.00;16.00;;;;;13.16;90.21;100796.91;5035661;28;45464;-73
2023/05/10 03:50:45;;;;;;;;;5.00;5.00;;;;;13.19;89.49;100802.94;5035632;28;45452;-74
2023/05/10 03:53:12;;;;;;;;;4.00;4.00;;;;;13.21;89.56;100809.03;5035321;28;46308;-73
2023/05/10 03:55:37;;;;;;;;;7.75;3.00;;;;;13.13;90.03;100795.22;5035253;28;45406;-74
2023/05/10 03:58:02;;;;;;;;;5.00;3.50;;;;;13.22;89.74;100813.41;5035484;28;45857;-73
2023/05/10 04:00:28;;;;;;;;;6.75;3.50;;;;;13.20;90.38;100812.59;5035578;28;45347;-74
2023/05/10 04:02:53;;;;;;;;;5.75;3.00;;;;;13.19;89.84;100810.88;5035341;28;45375;-74
2023/05/10 04:05:18;;;;;;;;;4.00;3.00;;;;;13.19;90.33;100808.22;5035141;28;45321;-73
2023/05/10 04:07:44;;;;;;;;;6.25;3.00;;;;;13.19;90.23;100810.00;5035618;28;45385;-73
2023/05/10 04:10:10;;;;;;;;;5.25;3.00;;;;;13.17;91.13;100806.53;5035580;28;45408;-73
2023/05/10 04:12:35;;;;;;;;;2.75;2.75;;;;;13.16;91.68;100803.03;5034819;28;47524;-74
2023/05/10 04:15:01;;;;;;;;;5.00;3.50;;;;;13.11;91.78;100793.53;5035356;28;45388;-73
2023/05/10 04:17:26;;;;;;;;;6.00;4.50;;;;;13.04;94.58;100795.50;5035401;28;45430;-73
2023/05/10 04:19:54;;;;;;;;;2.75;2.25;;;;;13.04;95.18;100796.38;5035598;28;45338;-75
2023/05/10 04:22:19;;;;;;;;;5.50;4.00;;;;;12.96;97.00;100797.53;5033399;28;46662;-73
2023/05/10 04:24:45;;;;;;;;;4.00;2.25;;;;;12.92;98.86;100791.47;5035096;28;45265;-74
2023/05/10 04:27:11;;;;;;;;;5.00;4.50;;;;;12.86;100.00;100795.16;5035009;28;45446;-76
2023/05/10 04:29:36;;;;;;;;;2.75;2.00;;;;;12.87;100.00;100806.63;5035265;27;45476;-74
2023/05/10 04:32:02;;;;;;;;;5.50;2.50;;;;;12.74;100.00;100803.50;5034887;28;46308;-74
2023/05/10 04:34:27;;;;;;;;;3.75;2.50;;;;;12.67;100.00;100804.59;5034828;28;45483;-75
2023/05/10 04:36:52;;;;;;;;;4.00;4.00;;;;;12.60;100.00;100784.56;5034955;28;45705;-74
2023/05/10 04:39:18;;;;;;;;;6.50;5.00;;;;;12.63;100.00;100806.44;5035483;28;45320;-74
2023/05/10 04:41:43;;;;;;;;;3.75;2.00;;;;;12.63;100.00;100808.22;5034482;28;45622;-74
2023/05/10 04:44:08;;;;;;;;;3.25;3.00;;;;;12.57;100.00;100798.72;5033246;28;45508;-74
2023/05/10 04:46:34;;;;;;;;;3.00;3.00;;;;;12.62;100.00;100807.38;5035066;27;45466;-74
2023/05/10 04:48:59;;;;;;;;;3.00;3.00;;;;;12.62;100.00;100815.31;5035027;28;45437;-75
2023/05/10 04:51:24;;;;;;;;;8.50;6.25;;;;;12.64;100.00;100815.25;5034909;28;46266;-74
2023/05/10 04:53:50;;;;;;;;;6.25;3.50;;;;;12.62;100.00;100814.41;5034462;28;45505;-75
2023/05/10 04:56:16;;;;;;;;;4.50;3.75;;;;;12.66;100.00;100826.63;5004443;28;45413;-76
2023/05/10 04:58:41;;;;;;;;;9.50;4.50;;;;;12.51;100.00;100798.91;5023928;28;45394;-79
2023/05/10 05:01:09;;;;;;;;;3.25;3.00;;;;;12.65;100.00;100824.88;5014598;28;46666;-77
2023/05/10 05:03:34;;;;;;;;;2.75;2.00;;;;;12.63;100.00;100829.38;5014542;28;45515;-78
2023/05/10 05:06:00;;;;;;;;;4.50;3.50;;;;;12.69;100.00;100821.25;5014675;28;45556;-81
2023/05/10 05:08:25;;;;;;;;;6.00;4.00;;;;;12.73;100.00;100830.81;5014984;28;45580;-80
2023/05/10 05:10:50;;;;;;;;;6.75;3.25;;;;;12.74;100.00;100829.06;5014466;28;45322;-80
2023/05/10 05:13:16;;;;;;;;;5.00;3.00;;;;;12.71;100.00;100832.66;5014483;28;45454;-80
2023/05/10 05:15:41;;;;;;;;;2.00;2.00;;;;;12.74;100.00;100837.84;5014774;28;45528;-81
2023/05/10 05:18:06;;;;;;;;;4.00;3.25;;;;;12.73;100.00;100829.97;5018122;28;45281;-79
2023/05/10 05:20:33;;;;;;;;;2.00;2.00;;;;;12.76;100.00;100840.44;5032807;28;45708;-83
2023/05/10 05:22:59;;;;;;;;;2.50;2.50;;;;;12.81;100.00;100841.13;5034173;28;45227;-84
2023/05/10 05:25:24;;;;;;;;;3.75;2.00;;;;;12.81;100.00;100838.50;5034610;27;45476;-83
2023/05/10 05:27:49;;;;;;;;;5.25;3.25;;;;;12.74;100.00;100834.34;5034471;28;45406;-80
2023/05/10 05:30:15;;;;;;;;;3.75;3.75;;;;;12.73;100.00;100825.53;5034198;28;46343;-81
2023/05/10 05:32:40;;;;;;;;;5.00;5.00;;;;;12.82;100.00;100843.75;5034422;28;45294;-83
2023/05/10 05:35:06;;;;;;;;;5.75;2.75;;;;;12.88;100.00;100847.97;5034890;28;45296;-81
2023/05/10 05:37:31;;;;;;;;;6.75;6.75;;;;;12.88;100.00;100853.25;5035465;28;45436;-87
2023/05/10 05:39:57;;;;;;;;;4.00;2.75;;;;;12.84;100.00;100849.84;5034633;27;45567;-87
2023/05/10 05:42:22;;;;;;;;;5.00;3.50;;;;;12.89;100.00;100844.41;5034486;28;45477;-90
2023/05/10 05:44:48;;;;;;;;;3.00;2.00;;;;;12.73;100.00;100822.88;5034681;28;45828;-85
2023/05/10 05:47:13;;;;;;;;;4.50;3.00;;;;;12.94;100.00;100850.44;5035453;28;45602;-87
2023/05/10 05:49:39;;;;;;;;;4.00;3.25;;;;;12.97;100.00;100845.06;5054163;28;45444;-84
2023/05/10 05:52:04;;;;;;;;;4.25;4.00;;;;;13.02;100.00;100855.47;5053829;28;45435;-84
2023/05/10 05:54:30;;;;;;;;;2.50;2.50;;;;;13.04;100.00;100846.59;5053531;28;45511;-82
2023/05/10 05:57:00;;;;;;;;;4.25;2.75;;;;;13.03;100.00;100852.78;5054220;28;45599;-82
2023/05/10 05:59:26;;;;;;;;;9.25;7.50;;;;;13.09;99.85;100846.44;5053788;28;46406;-87
2023/05/10 06:01:52;;;;;;;;;6.75;5.25;;;;;13.00;100.00;100841.47;5054021;28;45347;-82
2023/05/10 06:04:18;;;;;;;;;2.50;2.50;;;;;13.12;99.91;100867.50;5054172;28;45457;-83
2023/05/10 06:06:44;;;;;;;;;3.00;3.00;;;;;13.10;100.00;100865.81;5054046;28;45417;-80
2023/05/10 06:09:09;;;;;;;;;3.00;3.00;;;;;13.09;100.00;100866.75;5053923;28;46420;-82
2023/05/10 06:11:35;;;;;;;;;6.00;3.00;;;;;13.14;100.00;100865.69;5053954;28;45832;-83
2023/05/10 06:14:03;;;;;;;;;7.00;3.25;;;;;13.16;99.99;100869.13;5053982;28;45380;-82
2023/05/10 06:16:29;;;;;;;;;3.75;3.00;;;;;13.06;99.59;100846.56;5054102;28;45555;-82
2023/05/10 06:18:54;;;;;;;;;5.50;4.50;;;;;13.20;100.00;100864.59;5053525;28;46318;-80
2023/05/10 06:21:19;;;;;;;;;8.00;3.25;;;;;13.24;99.21;100867.13;5053567;28;45386;-80
2023/05/10 06:23:45;;;;;;;;;8.25;5.75;;;;;13.20;99.68;100854.91;5053687;28;45271;-84
2023/05/10 06:26:10;;;;;;;;;6.00;6.00;;;;;13.30;98.78;100871.34;5054023;28;45444;-82
2023/05/10 06:28:38;;;;;;;;;16.00;10.67;;;;;13.30;99.25;100873.13;5053501;28;45418;-80
2023/05/10 06:31:03;;;;;;;;;8.50;8.00;;;;;13.34;98.10;100878.28;5053191;28;45285;-80
2023/05/10 06:33:29;;;;;;;;;5.00;5.00;;;;;13.34;98.37;100880.03;5053822;28;45596;-80
2023/05/10 06:35:54;;;;;;;;;5.00;5.00;;;;;13.36;99.67;100879.13;5053619;28;45533;-80
2023/05/10 06:38:20;;;;;;;;;5.00;4.00;;;;;13.37;98.40;100877.31;5053581;27;45396;-83
2023/05/10 06:40:45;;;;;;;;;6.75;5.00;;;;;13.39;97.94;100879.00;5053882;28;45309;-83
2023/05/10 06:43:10;;;;;;;;;6.50;5.00;;;;;13.41;97.81;100879.81;5053334;28;45412;-80
2023/05/10 06:45:35;;;;;;;;;10.50;6.75;;;;;13.39;98.64;100876.38;5053585;28;45325;-81
2023/05/10 06:48:01;;;;;;;;;5.00;4.00;;;;;13.44;97.92;100891.22;5053500;28;46765;-81
2023/05/10 06:50:26;;;;;;;;;6.50;5.00;;;;;13.43;97.62;100887.69;5053520;28;45298;-82
2023/05/10 06:52:52;;;;;;;;;9.00;6.00;;;;;13.48;98.22;100900.78;5053536;28;45476;-85
2023/05/10 06:55:17;;;;;;;;;4.00;4.00;;;;;13.50;97.59;100899.81;5053703;28;45404;-81
2023/05/10 06:57:42;;;;;;;;;7.50;6.25;;;;;13.53;97.97;100902.34;5053493;28;45478;-82
2023/05/10 07:00:09;;;;;;;;;8.25;8.00;;;;;13.53;98.36;100897.06;5053137;28;45377;-80
2023/05/10 07:02:35;;;;;;;;;5.25;5.25;;;;;13.62;98.20;100898.53;5053181;28;45444;-83
2023/05/10 07:05:00;;;;;;;;;8.50;6.00;;;;;13.71;97.71;100908.84;5053566;28;45473;-80
2023/05/10 07:07:25;;;;;;;;;13.00;9.00;;;;;13.79;97.09;100911.22;5054204;28;45595;-80
2023/05/10 07:09:51;;;;;;;;;12.75;7.50;;;;;13.80;96.98;100905.00;5056328;28;45703;-85
2023/05/10 07:12:16;;;;;;;;;7.00;7.00;;;;;13.91;97.01;100909.94;5056009;28;45393;-84
2023/05/10 07:14:42;;;;;;;;;10.50;9.00;;;;;13.99;94.98;100915.84;5056574;28;45397;-82
2023/05/10 07:17:07;;;;;;;;;13.75;7.75;;;;;14.01;96.32;100921.09;5056221;28;45545;-78
2023/05/10 07:19:32;;;;;;;;;12.25;11.75;;;;;14.02;95.08;100918.38;5056108;28;45460;-80
2023/05/10 07:21:58;;;;;;;;;10.75;5.25;;;;;14.06;95.38;100919.16;5056082;28;45846;-86
2023/05/10 07:24:24;;;;;;;;;22.67;14.67;;;;;14.05;95.88;100917.41;5056382;28;45582;-81
2023/05/10 07:26:49;;;;;;;;;13.67;11.33;;;;;14.06;95.09;100917.34;5055094;28;46397;-82
2023/05/10 07:29:15;;;;;;;;;10.50;8.75;;;;;14.11;95.58;100927.78;5055568;28;45339;-81
2023/05/10 07:31:42;;;;;;;;;10.50;9.50;;;;;14.01;96.08;100913.13;5054872;28;45420;-80
2023/05/10 07:34:08;;;;;;;;;9.75;9.75;;;;;14.14;95.24;100930.31;5056046;28;45353;-83
2023/05/10 07:36:34;;;;;;;;;11.25;7.25;;;;;14.08;94.96;100920.81;5055925;28;45441;-83
2023/05/10 07:38:59;;;;;;;;;8.25;7.25;;;;;14.09;94.98;100927.84;5055779;28;45374;-82
2023/05/10 07:41:24;;;;;;;;;8.25;7.75;;;;;14.06;95.15;100927.09;5056123;28;45355;-82
2023/05/10 07:43:50;;;;;;;;;14.25;10.25;;;;;14.10;95.82;100932.22;5055678;28;45381;-83
2023/05/10 07:46:15;;;;;;;;;8.75;7.00;;;;;14.02;96.01;100921.03;5055544;27;46725;-82
2023/05/10 07:48:41;;;;;;;;;9.50;8.00;;;;;14.11;96.55;100941.03;5043613;27;45440;-82
2023/05/10 07:51:09;;;;;;;;;9.00;7.25;;;;;14.09;95.93;100941.09;5035484;28;45517;-84
2023/05/10 07:53:34;;;;;;;;;11.00;8.50;;;;;14.12;95.88;100941.91;5035691;28;45526;-86
2023/05/10 07:56:21;;;;;;;;;13.75;8.00;;;;;14.12;95.09;100941.91;5035293;28;46095;-81
2023/05/10 07:58:46;;;;;;;;;10.75;8.75;;;;;14.09;96.01;100925.19;5035490;28;45459;-81
2023/05/10 08:01:11;;;;;;;;;9.50;9.25;;;;;13.98;95.98;100903.50;5035731;28;45377;-85
2023/05/10 08:03:37;;;;;;;;;12.50;9.00;;;;;14.00;96.05;100906.09;5035688;28;45253;-80
2023/05/10 08:06:03;;;;;;;;;9.25;8.25;;;;;14.25;94.78;100940.56;5035317;28;46574;-83
2023/05/10 08:08:28;;;;;;;;;12.50;7.75;;;;;14.23;94.79;100932.66;5034141;27;45233;-78
2023/05/10 08:10:53;;;;;;;;;10.75;9.00;;;;;14.27;95.17;100934.31;5035794;27;45449;-80
2023/05/10 08:13:19;;;;;;;;;14.00;12.50;;;;;14.30;94.95;100933.31;5035520;28;45336;-82
2023/05/10 08:15:44;;;;;;;;;10.00;8.25;;;;;14.34;95.07;100928.78;5034981;28;45477;-79
2023/05/10 08:18:09;;;;;;;;;14.50;12.25;;;;;14.43;95.14;100941.69;5034711;28;45312;-81
2023/05/10 08:20:35;;;;;;;;;10.75;9.00;;;;;14.24;94.97;100917.63;5035288;28;45531;-84
2023/05/10 08:23:00;;;;;;;;;12.75;9.00;;;;;14.48;94.07;100953.00;5035564;28;45311;-84
2023/05/10 08:25:25;;;;;;;;;12.50;9.50;;;;;14.43;93.74;100946.97;5035062;28;47327;-82
2023/05/10 08:27:51;;;;;;;;;16.67;15.33;;;;;14.45;92.72;100948.66;5036460;27;45243;-85
2023/05/10 08:30:17;;;;;;;;;11.00;9.75;;;;;14.55;94.29;100959.81;5035269;28;45436;-80
2023/05/10 08:32:42;;;;;;;;;18.33;15.33;;;;;14.60;94.25;100954.34;5035140;28;45345;-81
2023/05/10 08:35:07;;;;;;;;;12.75;10.75;;;;;14.67;93.52;100960.28;5034830;28;45473;-85
2023/05/10 08:37:33;;;;;;;;;13.75;11.00;;;;;14.63;93.28;100952.44;5034790;28;45385;-80
2023/05/10 08:39:58;;;;;;;;;11.50;9.75;;;;;14.56;93.04;100942.09;5034864;28;45244;-81
2023/05/10 08:42:28;;;;;;;;;12.75;11.50;;;;;14.67;92.33;100970.88;5034981;28;45210;-78
2023/05/10 08:44:55;;;;;;;;;12.50;8.75;;;;;14.62;92.75;100963.13;5034393;28;46306;-81
2023/05/10 08:47:21;;;;;;;;;11.25;10.25;;;;;14.57;92.48;100967.69;5034988;28;45455;-79
2023/05/10 08:49:51;;;;;;;;;12.50;11.75;;;;;14.52;92.43;100962.56;5034990;27;45409;-80
2023/05/10 08:52:17;;;;;;;;;14.00;11.25;;;;;14.58;93.69;100965.00;5034824;28;45497;-81
2023/05/10 08:54:43;;;;;;;;;14.33;13.00;;;;;14.65;94.44;100976.25;5034552;28;46250;-78
2023/05/10 08:57:10;;;;;;;;;13.00;9.50;;;;;14.62;94.38;100964.00;5036104;27;45377;-83
2023/05/10 08:59:38;;;;;;;;;11.25;9.75;;;;;14.69;93.69;100961.13;5034739;28;45637;-79
2023/05/10 09:02:05;;;;;;;;;15.33;13.67;;;;;14.72;92.88;100975.09;5034763;28;45753;-79
2023/05/10 09:04:31;;;;;;;;;15.50;11.50;;;;;14.70;92.19;100973.47;5034528;28;45605;-80
2023/05/10 09:06:57;;;;;;;;;14.00;13.00;;;;;14.67;92.60;100962.94;5034495;28;45431;-81
2023/05/10 09:09:25;;;;;;;;;14.33;11.67;;;;;14.49;93.54;100930.84;5034852;28;45465;-80
2023/05/10 09:11:51;;;;;;;;;12.50;12.00;;;;;14.84;94.20;100972.94;5034623;28;45413;-82
2023/05/10 09:14:18;;;;;;;;;12.75;9.25;;;;;14.75;92.16;100960.88;5034223;28;45646;-81
2023/05/10 09:16:43;;;;;;;;;15.00;9.50;;;;;14.81;93.72;100987.16;5034712;28;45379;-81
2023/05/10 09:19:09;;;;;;;;;13.50;11.00;;;;;14.74;93.26;100973.28;5034835;28;45456;-81
2023/05/10 09:21:38;;;;;;;;;19.00;16.33;;;;;14.76;92.52;100979.38;5034569;28;45306;-81
2023/05/10 09:24:08;;;;;;;;;12.75;9.75;;;;;14.63;92.69;100983.41;5034276;28;46727;-84
2023/05/10 09:26:35;;;;;;;;;12.25;10.25;;;;;14.58;93.92;100991.50;5034308;28;45295;-81
2023/05/10 09:29:02;;;;;;;;;13.25;10.75;;;;;14.58;94.45;100998.56;5033994;28;45297;-84
2023/05/10 09:31:46;;;;;;;;;10.75;9.25;;;;;14.57;94.42;100997.69;5034574;27;45639;-83
2023/05/10 09:34:17;;;;;;;;;10.25;9.25;;;;;14.55;94.73;100996.91;5034054;28;47314;-84
2023/05/10 09:36:53;;;;;;;;;9.75;9.75;;;;;14.57;94.66;100992.41;5035332;27;45530;-83
2023/05/10 09:39:18;;;;;;;;;16.33;11.67;;;;;14.59;94.62;101001.16;5034289;28;45244;-84
2023/05/10 09:41:44;;;;;;;;;17.33;14.00;;;;;14.75;94.85;101009.44;5033425;28;45549;-84
2023/05/10 09:44:09;;;;;;;;;13.25;10.50;;;;;14.84;94.25;101018.88;5033633;27;45444;-82
2023/05/10 09:46:35;;;;;;;;;11.67;10.67;;;;;14.94;93.48;101020.28;5034577;27;45336;-82
2023/05/10 09:49:01;;;;;;;;;12.25;10.75;;;;;15.01;92.67;101001.47;5032290;27;45306;-81
2023/05/10 09:51:29;;;;;;;;;13.33;11.33;;;;;15.11;92.00;100995.75;5025765;28;45306;-81
2023/05/10 09:54:15;;;;;;;;;13.33;11.33;;;;;15.42;92.25;101001.69;5034313;28;46745;-88
2023/05/10 09:56:40;;;;;;;;;17.67;12.00;;;;;15.74;91.44;101018.13;5034009;28;45375;-81
2023/05/10 09:59:10;;;;;;;;;15.00;11.33;;;;;15.92;90.95;101009.47;5034028;28;45420;-78
2023/05/10 10:01:36;;;;;;;;;15.00;15.00;;;;;16.04;89.36;101001.91;5034166;28;45358;-85
2023/05/10 10:04:06;;;;;;;;;18.00;12.67;;;;;16.15;88.34;101007.66;5033704;28;46414;-85
2023/05/10 10:06:38;;;;;;;;;16.25;12.00;;;;;16.32;87.90;101017.56;5033673;28;45373;-81
2023/05/10 10:09:06;;;;;;;;;20.67;16.67;;;;;16.36;87.68;100996.09;5033872;28;45398;-84
2023/05/10 10:11:32;;;;;;;;;15.75;12.50;;;;;16.52;87.00;101003.41;5029259;28;45522;-87
2023/05/10 10:13:58;;;;;;;;;18.67;13.00;;;;;16.51;85.68;101007.00;5031447;28;45671;-83
2023/05/10 10:16:24;;;;;;;;;25.67;21.33;;;;;16.36;83.66;100985.47;5032760;28;45574;-80
2023/05/10 10:18:50;;;;;;;;;17.67;14.00;;;;;16.27;85.69;100975.25;5033491;28;45583;-81
2023/05/10 10:21:15;;;;;;;;;22.67;16.00;;;;;16.48;86.50;101012.44;5033065;28;45483;-84
2023/05/10 10:23:41;;;;;;;;;27.67;21.00;;;;;16.48;87.49;101007.13;5032297;28;45472;-83
2023/05/10 10:26:07;;;;;;;;;23.33;17.00;;;;;16.57;87.06;101017.38;5032767;28;45458;-82
2023/05/10 10:28:41;;;;;;;;;12.33;11.33;;;;;16.64;85.92;101009.97;5033165;28;45551;-81
2023/05/10 10:31:46;;;;;;;;;15.00;11.67;;;;;16.70;85.02;101009.69;5031272;28;45449;-82
2023/05/10 10:34:31;;;;;;;;;19.67;12.33;;;;;16.81;85.91;101011.91;4940513;28;45556;-84
2023/05/10 10:37:03;;;;;;;;;24.33;16.33;;;;;16.87;84.85;101008.97;4940677;28;45355;-86
2023/05/10 10:39:28;;;;;;;;;18.00;12.67;;;;;16.97;84.15;101006.78;4939463;28;45950;-85
2023/05/10 10:41:56;;;;;;;;;13.67;12.33;;;;;17.00;83.38;101004.84;4936883;28;45530;-86
2023/05/10 10:44:29;;;;;;;;;18.67;14.67;;;;;17.05;83.20;101008.16;4954504;28;46381;-84
2023/05/10 10:47:11;;;;;;;;;17.33;14.33;;;;;17.02;82.51;101004.75;4955074;28;45580;-87
2023/05/10 10:49:39;;;;;;;;;12.33;10.33;;;;;17.08;82.25;101001.84;4955739;28;45751;-86
2023/05/10 10:52:29;;;;;;;;;22.33;20.67;;;;;17.15;82.97;101007.72;4947345;28;45621;-82
2023/05/10 10:55:01;;;;;;;;;15.67;13.00;;;;;17.16;81.17;100996.16;4955193;28;46922;-82
2023/05/10 10:57:29;;;;;;;;;19.67;12.33;;;;;17.22;80.71;100998.53;4935954;28;45454;-83
2023/05/10 11:00:20;;;;;;;;;15.00;14.67;;;;;17.26;81.62;100994.78;4935788;28;45380;-84
2023/05/10 11:02:51;;;;;;;;;17.33;14.67;;;;;17.32;81.76;100991.00;4935994;28;45534;-85
2023/05/10 11:05:38;;;;;;;;;19.33;15.33;;;;;17.37;80.54;100989.84;4999352;28;46532;-79
2023/05/10 11:08:14;;;;;;;;;16.67;14.00;;;;;17.43;80.06;100994.00;5035947;28;45518;-81
2023/05/10 11:10:49;;;;;;;;;16.67;12.67;;;;;17.47;80.16;100986.72;5036343;28;45448;-85
2023/05/10 11:13:15;;;;;;;;;15.00;11.33;;;;;17.53;80.02;100986.47;5036304;28;45590;-82
2023/05/10 11:15:48;;;;;;;;;12.67;12.67;;;;;17.59;79.33;100994.13;5035707;28;46007;-84
2023/05/10 11:18:28;;;;;;;;;22.00;15.67;;;;;17.61;79.02;100997.56;5036121;28;45339;-86
2023/05/10 11:20:59;;;;;;;;;21.67;20.00;;;;;17.57;78.11;100996.88;5035865;28;45393;-80
2023/05/10 11:23:32;;;;;;;;;17.33;16.33;;;;;17.61;76.48;101002.06;5035901;28;45509;-82